Time;durP1;ratioP1;P1;durP2;ratioP2;P2;SDS_P1;SDS_P2;PMS_P1;PMS_P2;Temp;Humidity;BMP_temperature;BMP_pressure;BME280_temperature;BME280_humidity;BME280_pressure;Samples;Min_cycle;Max_cycle;Signal;HPM_P1;HPM_P2
2022/12/31 00:01:56;;;;;;;45.30;28.15;;;16.20;76.80;;;17.73;42.25;98792.38;5017149;28;20047;-79
2022/12/31 00:04:23;;;;;;;38.65;27.13;;;16.20;76.90;;;17.69;42.13;98794.19;4989196;28;20428;-79
2022/12/31 00:06:49;;;;;;;49.92;29.35;;;16.20;76.80;;;17.62;42.18;98794.63;5048667;28;20086;-79
2022/12/31 00:09:15;;;;;;;41.53;28.13;;;16.10;76.70;;;17.63;42.26;98792.69;5018769;28;20044;-79
2022/12/31 00:11:41;;;;;;;44.03;28.50;;;16.10;76.80;;;17.63;42.10;98788.03;5047747;28;20455;-79
2022/12/31 00:14:07;;;;;;;41.95;29.17;;;16.00;76.60;;;17.62;42.12;98794.63;5048043;28;20044;-79
2022/12/31 00:16:37;;;;;;;46.17;27.20;;;16.10;76.30;;;17.67;42.24;98791.75;5033650;28;20413;-79
2022/12/31 00:19:04;;;;;;;43.88;27.95;;;16.20;76.90;;;17.69;42.18;98797.72;5044114;28;20044;-79
2022/12/31 00:21:31;;;;;;;45.05;29.75;;;16.10;76.90;;;17.60;42.51;98798.84;5015532;28;20072;-79
2022/12/31 00:23:57;;;;;;;47.58;28.80;;;16.20;76.70;;;17.60;42.41;98796.09;5020195;28;20116;-79
2022/12/31 00:26:26;;;;;;;44.78;29.55;;;16.10;76.50;;;17.63;41.90;98800.94;5017139;28;20089;-79
2022/12/31 00:28:53;;;;;;;39.67;27.52;;;16.10;76.60;;;17.61;42.25;98800.47;5037144;28;20079;-79
2022/12/31 00:31:22;;;;;;;47.03;29.98;;;16.10;76.80;;;17.62;42.47;98804.81;5030041;28;20369;-79
2022/12/31 00:33:48;;;;;;;40.85;28.73;;;16.10;77.00;;;17.69;42.34;98805.94;5022455;28;20036;-79
2022/12/31 00:36:26;;;;;;;43.17;27.63;;;16.10;77.00;;;17.65;42.37;98790.44;5032135;28;20041;-79
2022/12/31 00:38:54;;;;;;;48.38;29.73;;;16.10;77.00;;;17.65;42.00;98788.50;5030997;28;20626;-79
2022/12/31 00:41:21;;;;;;;45.40;28.67;;;16.20;76.50;;;17.69;42.13;98794.19;5030425;28;20072;-79
2022/12/31 00:43:47;;;;;;;46.47;29.13;;;16.10;76.70;;;17.67;42.01;98793.69;5028999;28;20095;-79
2022/12/31 00:46:14;;;;;;;45.85;30.38;;;16.20;76.80;;;17.73;42.08;98792.38;5044849;28;20218;-79
2022/12/31 00:48:40;;;;;;;46.78;30.77;;;16.10;76.60;;;17.73;42.04;98797.88;5032238;28;20496;-79
2022/12/31 00:51:09;;;;;;;48.47;30.20;;;16.10;76.70;;;17.79;41.97;98788.38;4998340;28;20041;-79
2022/12/31 00:53:35;;;;;;;46.58;31.95;;;16.10;76.70;;;17.84;41.71;98788.25;5012783;28;20114;-79
2022/12/31 00:56:04;;;;;;;47.35;30.58;;;16.10;76.50;;;17.81;41.80;98794.38;5017761;28;20128;-79
2022/12/31 00:58:30;;;;;;;46.85;32.28;;;16.10;76.50;;;17.86;41.65;98796.97;5019420;28;20041;-79
2022/12/31 01:00:56;;;;;;;45.30;30.13;;;16.10;76.60;;;17.87;41.86;98789.53;5036489;28;20028;-79
2022/12/31 01:03:23;;;;;;;46.42;31.48;;;16.10;76.60;;;17.87;41.41;98787.59;5015437;28;20062;-79
2022/12/31 01:05:49;;;;;;;49.60;31.33;;;16.20;76.20;;;17.89;41.50;98796.31;5030076;28;20119;-79
2022/12/31 01:08:16;;;;;;;51.22;32.58;;;16.10;76.30;;;17.88;41.57;98796.63;5016484;28;20119;-79
2022/12/31 01:13:33;;;;;;;47.58;31.15;;;16.00;76.60;;;17.98;41.52;98788.09;5039290;28;20036;-79
2022/12/31 01:16:10;;;;;;;45.47;29.52;;;16.00;76.80;;;17.96;41.43;98780.19;5028566;28;20048;-79
2022/12/31 01:18:36;;;;;;;48.33;31.65;;;16.00;76.70;;;17.91;41.49;98787.75;5034310;28;20045;-79
2022/12/31 01:21:04;;;;;;;51.67;32.85;;;16.00;76.80;;;17.99;40.96;98786.97;5031628;28;20045;-79
2022/12/31 01:23:30;;;;;;;53.13;34.50;;;16.00;76.60;;;18.05;41.05;98795.84;5047711;28;20128;-79
2022/12/31 01:26:00;;;;;;;48.28;30.73;;;16.00;76.70;;;18.08;41.30;98800.69;5037319;28;20036;-79
2022/12/31 01:28:26;;;;;;;50.17;32.97;;;16.00;77.10;;;18.09;41.32;98792.13;5048487;28;20048;-79
2022/12/31 01:30:52;;;;;;;49.25;33.45;;;16.00;76.80;;;18.05;41.14;98784.88;5051391;28;20137;-79
2022/12/31 01:33:19;;;;;;;47.97;32.08;;;16.00;76.70;;;18.14;41.07;98786.47;5031322;28;20048;-79
2022/12/31 01:35:45;;;;;;;47.75;32.03;;;16.00;76.70;;;18.16;41.12;98778.69;5010205;28;20037;-79
2022/12/31 01:38:11;;;;;;;49.83;31.83;;;16.10;76.60;;;18.17;41.12;98772.09;5014959;28;20049;-79
2022/12/31 01:40:38;;;;;;;48.90;31.75;;;16.20;76.60;;;18.22;41.07;98784.84;5025963;28;20769;-79
2022/12/31 01:43:20;;;;;;;46.05;32.45;;;16.20;76.40;;;18.18;40.80;98792.91;5004137;28;20045;-80
2022/12/31 01:45:52;;;;;;;52.97;33.65;;;16.20;76.30;;;18.22;40.89;98788.41;5030108;28;20132;-80
2022/12/31 01:48:24;;;;;;;49.28;32.80;;;16.20;76.30;;;18.26;40.98;98790.50;5011643;28;20045;-80
2022/12/31 01:50:51;;;;;;;53.53;32.83;;;16.20;76.60;;;18.27;40.99;98786.59;5014040;28;20037;-80
2022/12/31 01:53:17;;;;;;;48.05;32.88;;;16.20;76.50;;;18.23;41.20;98786.47;5015314;28;20036;-80
2022/12/31 01:55:56;;;;;;;51.35;33.25;;;16.20;76.50;;;18.27;40.97;98784.69;5045582;28;20037;-80
2022/12/31 01:58:30;;;;;;;50.58;33.03;;;16.20;76.60;;;18.31;40.87;98787.59;5033386;28;20037;-80
2022/12/31 02:00:57;;;;;;;44.05;31.17;;;16.20;76.50;;;18.34;40.98;98785.00;5032426;28;20369;-79
2022/12/31 02:03:23;;;;;;;54.45;33.67;;;16.20;76.60;;;18.28;41.14;98789.03;5028351;28;20072;-80
2022/12/31 02:06:18;;;;;;;51.85;32.60;;;16.30;76.80;;;18.36;41.51;98792.91;5026200;28;20040;-80
2022/12/31 02:08:44;;;;;;;53.13;34.15;;;16.30;76.70;;;18.41;41.13;98779.81;5027176;28;20058;-80
2022/12/31 02:11:40;;;;;;;47.60;32.38;;;16.30;76.90;;;18.34;41.24;98779.53;5030344;28;20043;-80
2022/12/31 02:14:15;;;;;;;46.40;31.02;;;16.30;77.50;;;18.36;41.06;98785.47;5014907;28;20052;-80
2022/12/31 02:17:26;;;;;;;48.50;31.20;;;16.30;76.80;;;18.43;40.99;98779.50;5034836;28;20113;-79
2022/12/31 02:20:19;;;;;;;46.58;33.08;;;16.20;77.00;;;18.42;40.96;98778.69;5049367;28;20106;-79
2022/12/31 02:23:16;;;;;;;43.45;30.83;;;16.30;77.00;;;18.40;40.94;98774.66;5048506;28;20057;-80
2022/12/31 02:26:22;;;;;;;49.45;33.15;;;16.30;77.00;;;18.43;40.95;98785.78;5049667;28;20128;-80
2022/12/31 02:29:22;;;;;;;46.88;31.23;;;16.30;76.90;;;18.44;40.87;98792.91;5044548;28;20064;-80
2022/12/31 02:32:01;;;;;;;48.78;32.13;;;16.30;76.90;;;18.43;40.97;98784.97;5049370;28;20045;-79
2022/12/31 02:34:36;;;;;;;48.13;30.38;;;16.30;76.80;;;18.50;40.68;98784.50;5021128;28;20039;-80
2022/12/31 02:37:03;;;;;;;43.30;30.98;;;16.30;76.90;;;18.46;40.92;98787.06;5026698;28;20044;-80
2022/12/31 02:39:30;;;;;;;47.30;31.77;;;16.40;76.80;;;18.40;41.04;98783.69;5018638;28;20041;-80
2022/12/31 02:41:56;;;;;;;46.67;31.65;;;16.40;76.70;;;18.49;40.91;98778.19;5044691;28;20067;-80
2022/12/31 02:44:31;;;;;;;47.78;32.28;;;16.40;76.90;;;18.50;41.01;98773.50;5027111;28;20063;-80
2022/12/31 02:47:06;;;;;;;42.22;29.85;;;16.30;77.00;;;18.51;40.91;98781.41;5034085;28;20041;-80
2022/12/31 02:50:12;;;;;;;51.15;32.42;;;16.40;76.90;;;18.50;40.77;98793.53;5062595;28;20053;-80
2022/12/31 02:53:19;;;;;;;48.20;31.10;;;16.40;76.80;;;18.48;40.89;98792.25;5041225;28;20041;-79
2022/12/31 02:55:58;;;;;;;43.70;29.25;;;16.40;76.80;;;18.53;40.95;98789.34;5049114;28;20484;-79
2022/12/31 03:06:53;;;;;;;47.05;30.70;;;16.50;76.60;;;18.57;40.68;98757.31;5043031;28;20123;-80
2022/12/31 03:09:19;;;;;;;47.08;29.65;;;16.40;76.60;;;18.54;40.72;98760.72;5022224;28;20029;-80
2022/12/31 03:14:30;;;;;;;48.55;29.67;;;16.40;76.90;;;18.55;41.00;98776.09;5022229;28;20091;-80
2022/12/31 03:16:56;;;;;;;50.50;31.95;;;16.40;76.90;;;18.51;41.03;98767.66;5012633;28;20863;-80
2022/12/31 03:22:26;;;;;;;47.85;31.90;;;16.50;76.80;;;18.51;41.02;98747.66;5032650;28;20370;-79
2022/12/31 03:28:03;;;;;;;47.53;30.52;;;16.50;76.50;;;18.55;40.98;98734.88;5038447;28;20047;-80
2022/12/31 03:30:30;;;;;;;51.13;32.20;;;16.50;76.70;;;18.53;41.14;98717.91;5014266;28;20037;-80
2022/12/31 03:32:57;;;;;;;48.97;34.55;;;16.60;76.80;;;18.58;40.94;98728.72;5032868;28;20047;-80
2022/12/31 03:35:23;;;;;;;47.15;31.70;;;16.50;76.60;;;18.56;40.95;98728.25;5031008;28;20063;-79
2022/12/31 03:37:50;;;;;;;47.13;32.38;;;16.50;76.60;;;18.52;40.97;98754.75;5015446;28;20045;-80
2022/12/31 03:40:16;;;;;;;43.63;30.85;;;16.50;76.50;;;18.57;40.79;98762.81;5048576;28;20068;-80
2022/12/31 03:42:42;;;;;;;44.38;30.88;;;16.50;76.40;;;18.56;40.70;98783.19;5018059;28;20123;-80
2022/12/31 03:45:09;;;;;;;47.63;31.85;;;16.60;76.50;;;18.56;40.92;98788.66;5032255;28;20091;-80
2022/12/31 03:47:36;;;;;;;46.53;31.63;;;16.60;76.30;;;18.54;40.75;98794.47;5018598;28;20131;-80
2022/12/31 03:50:03;;;;;;;52.47;32.67;;;16.60;76.50;;;18.57;40.73;98790.28;5015873;28;20056;-80
2022/12/31 03:52:29;;;;;;;49.25;32.08;;;16.50;76.40;;;18.51;40.89;98786.09;5026142;28;20040;-80
2022/12/31 03:54:55;;;;;;;48.95;31.05;;;16.60;76.50;;;18.53;40.72;98781.09;5029125;28;20032;-80
2022/12/31 03:57:22;;;;;;;47.95;30.42;;;16.50;76.30;;;18.51;40.89;98786.09;5029348;28;20036;-80
2022/12/31 03:59:48;;;;;;;44.70;30.58;;;16.60;76.30;;;18.56;40.67;98786.72;5010976;28;20044;-80
2022/12/31 04:02:15;;;;;;;40.08;28.75;;;16.60;76.30;;;18.55;40.87;98781.56;5009436;28;20102;-80
2022/12/31 04:04:41;;;;;;;43.83;31.23;;;16.60;76.30;;;18.56;40.55;98777.69;5030945;28;20045;-80
2022/12/31 04:07:07;;;;;;;47.03;31.73;;;16.50;76.30;;;18.55;40.79;98781.56;5032042;28;20143;-80
2022/12/31 04:09:33;;;;;;;44.28;31.17;;;16.60;76.20;;;18.57;40.79;98784.78;4998340;28;20102;-79
2022/12/31 04:11:59;;;;;;;47.00;30.30;;;16.60;76.10;;;18.56;40.71;98781.22;5010958;28;20036;-80
2022/12/31 04:14:25;;;;;;;44.75;31.40;;;16.60;76.10;;;18.53;40.83;98778.34;5017215;28;20037;-80
2022/12/31 04:16:51;;;;;;;44.78;31.30;;;16.60;76.10;;;18.53;40.50;98783.84;4996223;28;20178;-80
2022/12/31 04:19:17;;;;;;;43.17;30.52;;;16.60;76.00;;;18.56;40.48;98780.44;5029469;28;20037;-80
2022/12/31 04:21:43;;;;;;;41.88;30.05;;;16.60;75.80;;;18.53;40.52;98772.84;5031914;28;20120;-80
2022/12/31 04:24:09;;;;;;;51.95;32.80;;;16.60;75.70;;;18.54;40.91;98774.44;5014132;28;20037;-80
2022/12/31 04:26:36;;;;;;;42.78;30.40;;;16.60;76.00;;;18.54;40.63;98782.69;5029608;28;20843;-80
2022/12/31 04:29:02;;;;;;;47.70;30.58;;;16.60;76.00;;;18.53;40.60;98786.59;5030572;28;20041;-80
2022/12/31 04:31:28;;;;;;;40.42;30.35;;;16.60;75.90;;;18.54;40.72;98777.19;5046241;28;20041;-80
2022/12/31 04:33:54;;;;;;;42.92;29.17;;;16.60;76.00;;;18.52;40.64;98773.97;5041364;28;20053;-80
2022/12/31 04:36:20;;;;;;;56.17;33.22;;;16.60;76.10;;;18.52;40.94;98774.81;5011698;28;20039;-80
2022/12/31 04:38:46;;;;;;;41.30;30.48;;;16.60;76.10;;;18.53;40.72;98775.59;5044881;28;20033;-80
2022/12/31 04:41:22;;;;;;;44.55;30.75;;;16.60;75.90;;;18.57;40.46;98779.28;5031480;28;20044;-80
2022/12/31 04:43:50;;;;;;;49.78;32.00;;;16.60;75.90;;;18.53;40.39;98765.41;5016325;28;20088;-80
2022/12/31 04:46:19;;;;;;;40.83;30.30;;;16.60;75.90;;;18.52;40.71;98782.22;5028164;28;20051;-79
2022/12/31 04:48:45;;;;;;;41.58;29.00;;;16.60;75.80;;;18.53;40.77;98783.84;5016289;28;20782;-80
2022/12/31 04:51:12;;;;;;;48.33;32.33;;;16.60;75.70;;;18.52;40.56;98790.44;5031025;28;20125;-80
2022/12/31 04:53:38;;;;;;;45.20;29.42;;;16.60;75.70;;;18.53;40.67;98797.56;5042282;28;20041;-80
2022/12/31 04:56:05;;;;;;;44.40;30.00;;;16.60;75.80;;;18.50;40.77;98796.28;5012563;28;20053;-80
2022/12/31 04:58:32;;;;;;;42.60;30.60;;;16.60;75.70;;;18.53;40.61;98794.81;5033064;28;20036;-79
2022/12/31 05:00:58;;;;;;;44.78;30.30;;;16.70;75.40;;;18.52;40.68;98795.94;5030970;28;20373;-80
2022/12/31 05:03:24;;;;;;;44.63;31.15;;;16.60;75.70;;;18.54;40.60;98804.66;5046607;28;20051;-80
2022/12/31 05:05:51;;;;;;;42.10;28.70;;;16.60;75.80;;;18.51;40.82;98806.13;5020346;28;20044;-80
2022/12/31 05:08:18;;;;;;;44.50;31.38;;;16.60;75.80;;;18.48;40.72;98811.47;5051629;28;20033;-80
2022/12/31 05:10:46;;;;;;;44.63;30.92;;;16.60;75.80;;;18.49;40.78;98813.88;5007868;28;20042;-80
2022/12/31 05:13:12;;;;;;;44.03;29.38;;;16.70;75.60;;;18.53;40.82;98814.84;5014787;28;20124;-80
2022/12/31 05:15:39;;;;;;;38.00;28.70;;;16.60;75.60;;;18.46;40.53;98817.28;5020105;28;20491;-80
2022/12/31 05:18:05;;;;;;;46.80;30.45;;;16.60;75.60;;;18.52;41.03;98818.75;5037806;28;20441;-80
2022/12/31 05:20:32;;;;;;;44.22;28.58;;;16.60;75.90;;;18.51;40.83;98819.06;4995462;28;20037;-80
2022/12/31 05:22:58;;;;;;;38.55;28.63;;;16.60;76.10;;;18.50;41.03;98820.22;5036890;28;20048;-80
2022/12/31 05:25:24;;;;;;;46.30;31.63;;;16.60;75.80;;;18.47;40.72;98823.56;5034417;28;20055;-80
2022/12/31 05:27:50;;;;;;;42.42;29.42;;;16.70;75.80;;;18.48;40.81;98822.47;5050347;28;20119;-80
2022/12/31 05:30:19;;;;;;;43.80;30.10;;;16.60;75.70;;;18.51;40.49;98824.56;5019637;28;20472;-80
2022/12/31 05:32:45;;;;;;;40.00;27.55;;;16.60;75.60;;;18.51;40.96;98827.31;5034362;28;20037;-80
2022/12/31 05:35:12;;;;;;;41.67;28.33;;;16.60;75.90;;;18.53;40.72;98816.81;5037741;28;20042;-80
2022/12/31 05:37:38;;;;;;;37.55;26.95;;;16.70;75.80;;;18.51;40.90;98819.06;5030921;28;20095;-80
2022/12/31 05:40:05;;;;;;;43.53;28.15;;;16.60;75.90;;;18.46;40.80;98813.75;5028609;28;20037;-80
2022/12/31 05:42:31;;;;;;;38.08;27.50;;;16.70;75.80;;;18.47;40.79;98815.34;5033523;28;20056;-79
2022/12/31 05:44:57;;;;;;;39.72;27.13;;;16.70;75.70;;;18.41;40.74;98821.00;5036164;28;20067;-79
2022/12/31 05:47:23;;;;;;;36.95;27.20;;;16.60;75.60;;;18.48;40.56;98827.97;5034772;28;20048;-79
2022/12/31 05:49:49;;;;;;;39.50;28.83;;;16.60;75.70;;;18.48;40.76;98812.28;5034155;28;20052;-79
2022/12/31 05:52:16;;;;;;;35.65;27.45;;;16.60;75.90;;;18.47;40.70;98804.34;5031689;28;20688;-79
2022/12/31 05:54:42;;;;;;;39.33;26.58;;;16.70;76.10;;;18.44;41.10;98812.13;5031170;28;20046;-80
2022/12/31 05:57:08;;;;;;;43.75;27.27;;;16.70;75.90;;;18.47;40.86;98810.69;5029854;28;20500;-79
2022/12/31 05:59:35;;;;;;;41.22;28.48;;;16.70;75.70;;;18.39;40.84;98820.53;5033064;28;20123;-79
2022/12/31 06:02:01;;;;;;;37.35;27.17;;;16.70;75.40;;;18.48;40.69;98830.72;5034101;28;20062;-79
2022/12/31 06:04:27;;;;;;;37.90;26.15;;;16.70;75.30;;;18.50;40.78;98822.94;5028586;28;20402;-79
2022/12/31 06:06:53;;;;;;;43.20;28.23;;;16.70;75.60;;;18.41;40.65;98826.50;5000342;28;20051;-79
2022/12/31 06:09:19;;;;;;;41.22;27.52;;;16.70;75.30;;;18.42;40.75;98835.56;5030239;28;20040;-79
2022/12/31 06:11:45;;;;;;;37.10;26.70;;;16.70;75.50;;;18.47;40.82;98835.41;5020151;28;20374;-79
2022/12/31 06:14:12;;;;;;;37.85;24.88;;;16.60;75.60;;;18.42;40.83;98827.31;5010041;28;20048;-79
2022/12/31 06:16:41;;;;;;;37.53;28.52;;;16.60;75.80;;;18.48;40.89;98838.94;5049683;28;20508;-79
2022/12/31 06:19:07;;;;;;;38.90;26.45;;;16.60;75.80;;;18.46;40.76;98842.00;5034704;28;20734;-79
2022/12/31 06:21:33;;;;;;;41.10;26.02;;;16.70;75.70;;;18.48;40.72;98841.69;5033007;28;20781;-79
2022/12/31 06:24:00;;;;;;;36.58;26.48;;;16.70;75.70;;;18.44;40.68;98847.00;4999496;28;20036;-79
2022/12/31 06:26:26;;;;;;;38.25;25.48;;;16.60;75.60;;;18.41;40.81;98834.72;5045367;28;20056;-79
2022/12/31 06:28:53;;;;;;;35.58;24.80;;;16.60;75.60;;;18.44;40.71;98842.34;5016488;28;20052;-79
2022/12/31 06:31:19;;;;;;;35.75;26.20;;;16.60;75.50;;;18.43;40.75;98851.69;5015130;28;20033;-79
2022/12/31 06:33:45;;;;;;;38.70;25.75;;;16.60;75.50;;;18.42;40.74;98855.59;5029871;28;20041;-79
2022/12/31 06:36:13;;;;;;;38.17;25.80;;;16.60;75.40;;;18.44;40.40;98861.56;5028859;28;20047;-79
2022/12/31 06:38:40;;;;;;;37.20;25.83;;;16.60;75.20;;;18.40;40.67;98860.59;5025317;28;20063;-79
2022/12/31 06:41:11;;;;;;;33.50;24.67;;;16.60;75.50;;;18.41;40.79;98859.44;5025345;28;20041;-79
2022/12/31 06:43:38;;;;;;;43.63;27.17;;;16.60;75.70;;;18.37;40.56;98858.50;5003961;28;20053;-79
2022/12/31 06:46:06;;;;;;;38.55;25.58;;;16.60;75.30;;;18.37;40.72;98855.75;5028973;28;20653;-79
2022/12/31 06:48:32;;;;;;;33.30;24.20;;;16.60;75.10;;;18.36;40.74;98861.56;5029435;28;20041;-79
2022/12/31 06:51:06;;;;;;;37.95;26.15;;;16.60;75.00;;;18.38;40.75;98864.78;5025163;28;20067;-79
2022/12/31 06:53:34;;;;;;;35.38;25.15;;;16.60;75.20;;;18.38;40.58;98860.09;5039746;28;20036;-79
2022/12/31 06:56:12;;;;;;;41.85;27.00;;;16.60;75.20;;;18.37;40.80;98853.00;5031435;28;20058;-79
2022/12/31 06:58:45;;;;;;;31.60;24.65;;;16.60;75.20;;;18.37;40.47;98855.75;5022391;28;20052;-79
2022/12/31 07:01:32;;;;;;;31.73;23.88;;;16.60;75.00;;;18.41;40.60;98862.19;5042542;28;20045;-79
2022/12/31 07:04:40;;;;;;;31.73;23.50;;;16.60;75.20;;;18.41;40.61;98853.97;5060039;28;20480;-79
2022/12/31 07:07:31;;;;;;;34.25;25.30;;;16.60;75.00;;;18.41;40.49;98853.97;5039025;28;20054;-79
2022/12/31 07:10:24;;;;;;;32.72;24.25;;;16.70;75.10;;;18.41;40.54;98848.47;5017620;28;20044;-79
2022/12/31 07:13:25;;;;;;;32.92;23.58;;;16.60;75.00;;;18.39;40.53;98850.75;5056010;28;20059;-79
2022/12/31 07:16:12;;;;;;;35.10;24.33;;;16.60;75.10;;;18.36;40.81;98851.38;5047738;28;20045;-79
2022/12/31 07:18:44;;;;;;;34.90;25.58;;;16.60;75.10;;;18.38;40.54;98859.31;5048464;28;20045;-79
2022/12/31 07:21:13;;;;;;;37.88;26.10;;;16.60;75.00;;;18.38;40.48;98864.78;5042300;28;20608;-79
2022/12/31 07:23:40;;;;;;;35.92;25.25;;;16.60;75.00;;;18.42;40.56;98874.00;5014037;28;20048;-79
2022/12/31 07:26:31;;;;;;;39.88;24.40;;;16.60;75.00;;;18.43;40.44;98881.91;5058305;28;20083;-79
2022/12/31 07:29:16;;;;;;;33.85;23.70;;;16.70;75.10;;;18.42;40.66;98877.56;5040767;28;20045;-79
2022/12/31 07:32:20;;;;;;;30.77;23.08;;;16.60;75.00;;;18.40;40.58;98882.56;5039976;28;20045;-79
2022/12/31 07:35:05;;;;;;;32.42;23.80;;;16.70;75.10;;;18.41;40.58;98881.41;5045236;28;20538;-79
2022/12/31 07:37:44;;;;;;;34.40;23.60;;;16.60;75.10;;;18.44;40.65;98885.47;5062115;28;20040;-79
2022/12/31 07:40:46;;;;;;;35.33;23.58;;;16.70;75.10;;;18.45;40.43;98870.63;5044707;28;20045;-79
2022/12/31 07:43:51;;;;;;;28.20;21.10;;;16.70;75.10;;;18.43;40.50;98873.66;5060233;28;20041;-79
2022/12/31 07:46:40;;;;;;;31.00;22.65;;;16.70;75.10;;;18.40;40.81;98879.81;5043305;28;20488;-79
2022/12/31 07:49:10;;;;;;;32.83;22.48;;;16.70;75.10;;;18.46;40.45;98887.91;5030481;28;20036;-79
2022/12/31 07:51:37;;;;;;;32.10;23.83;;;16.70;75.10;;;18.50;40.37;98899.84;5012204;28;20044;-78
2022/12/31 07:54:03;;;;;;;28.42;22.58;;;16.70;75.10;;;18.48;40.23;98911.16;5011707;28;20067;-79
2022/12/31 07:56:30;;;;;;;33.95;22.38;;;16.80;75.10;;;18.52;40.30;98903.91;5047829;28;20041;-79
2022/12/31 07:59:14;;;;;;;35.75;24.80;;;16.80;75.20;;;18.49;40.48;98904.53;5012199;28;20037;-79
2022/12/31 08:01:51;;;;;;;33.63;24.27;;;16.80;75.20;;;18.52;40.36;98903.06;5060874;28;20048;-79
2022/12/31 08:04:46;;;;;;;33.60;23.02;;;16.80;75.10;;;18.54;40.22;98900.81;5047219;28;20131;-79
2022/12/31 08:07:28;;;;;;;29.73;22.55;;;16.80;75.00;;;18.53;40.34;98907.44;5031915;28;20545;-79
2022/12/31 08:10:04;;;;;;;33.30;22.38;;;16.80;75.00;;;18.56;40.25;98902.09;5048210;28;20046;-79
2022/12/31 08:12:33;;;;;;;32.70;21.30;;;16.80;75.10;;;18.58;40.29;98896.28;5020575;28;20519;-79
2022/12/31 08:15:00;;;;;;;29.75;21.70;;;16.80;75.10;;;18.61;40.08;98896.44;5030377;28;20151;-79
2022/12/31 08:17:27;;;;;;;30.92;21.20;;;16.80;75.00;;;18.59;40.03;98897.91;4996122;28;20048;-79
2022/12/31 08:19:54;;;;;;;30.63;22.90;;;16.90;74.80;;;18.59;40.12;98900.66;5013645;28;20500;-79
2022/12/31 08:23:01;;;;;;;26.00;21.27;;;16.90;74.60;;;18.63;40.11;98896.13;5043245;28;20121;-79
2022/12/31 08:26:13;;;;;;;29.27;20.75;;;16.90;74.60;;;18.63;40.16;98887.88;5045254;28;20332;-79
2022/12/31 08:29:01;;;;;;;29.00;22.13;;;16.90;74.70;;;18.62;40.31;98887.09;5034751;28;20479;-79
2022/12/31 08:31:38;;;;;;;30.90;22.45;;;16.90;75.20;;;18.70;40.34;98895.63;5035459;28;20032;-80
2022/12/31 08:34:17;;;;;;;29.23;20.52;;;16.90;75.30;;;18.70;40.33;98899.19;5044726;28;20044;-79
2022/12/31 08:37:03;;;;;;;26.38;21.08;;;16.90;75.30;;;18.74;40.01;98907.59;5049184;28;20082;-79
2022/12/31 08:39:59;;;;;;;28.70;20.42;;;16.90;75.20;;;18.68;40.28;98901.47;5033366;28;20052;-80
2022/12/31 08:42:36;;;;;;;26.45;19.92;;;16.90;75.10;;;18.80;40.05;98907.13;5036522;28;20534;-80
2022/12/31 08:45:26;;;;;;;27.42;19.83;;;16.90;75.10;;;18.83;39.86;98909.22;5019641;28;20060;-79
2022/12/31 08:48:23;;;;;;;29.17;20.88;;;16.90;74.90;;;18.80;40.05;98915.38;5049254;28;20093;-79
2022/12/31 08:50:50;;;;;;;29.20;20.88;;;17.00;74.80;;;18.85;39.86;98906.13;5035990;28;20040;-79
2022/12/31 08:53:16;;;;;;;28.60;21.25;;;17.00;74.70;;;18.85;40.09;98912.47;5009348;28;20049;-79
2022/12/31 08:55:42;;;;;;;27.48;20.67;;;17.10;74.70;;;18.87;40.11;98921.16;5047955;28;20514;-79
2022/12/31 08:58:41;;;;;;;27.08;20.45;;;17.10;74.90;;;18.87;40.41;98918.41;4993441;28;20125;-79
2022/12/31 09:01:07;;;;;;;31.05;20.52;;;17.10;75.30;;;18.90;40.15;98916.97;5026414;28;20049;-79
2022/12/31 09:04:18;;;;;;;25.92;19.00;;;17.10;75.00;;;18.96;39.91;98917.63;5034238;28;20047;-79
2022/12/31 09:06:58;;;;;;;27.37;19.47;;;17.20;74.80;;;18.93;39.02;98912.75;4976578;28;20133;-79
2022/12/31 09:10:07;;;;;;;29.30;20.90;;;17.50;72.70;;;18.95;38.60;98916.78;5020841;28;20053;-79
2022/12/31 09:12:58;;;;;;;27.10;18.45;;;17.50;71.70;;;18.90;38.52;98918.91;5049283;28;20059;-79
2022/12/31 09:15:36;;;;;;;26.95;18.70;;;17.40;71.60;;;18.86;38.30;98913.25;5047435;28;20037;-80
2022/12/31 09:18:02;;;;;;;25.90;18.17;;;17.30;71.50;;;18.85;38.21;98909.72;5018871;28;20036;-80
2022/12/31 09:20:31;;;;;;;24.70;18.10;;;17.30;71.10;;;18.84;37.88;98916.31;5013360;28;20586;-81
2022/12/31 09:22:58;;;;;;;21.88;17.60;;;17.30;70.60;;;18.83;37.95;98909.22;5013733;28;20480;-81
2022/12/31 09:25:25;;;;;;;27.30;18.02;;;17.20;70.60;;;18.84;37.83;98891.59;5016414;28;20588;-80
2022/12/31 09:27:51;;;;;;;21.85;17.80;;;17.20;70.80;;;18.82;37.70;98891.09;5031695;28;20049;-79
2022/12/31 09:30:17;;;;;;;29.95;19.30;;;17.20;70.70;;;18.81;37.69;98900.50;5044021;28;20101;-80
2022/12/31 09:33:11;;;;;;;24.58;17.50;;;17.20;70.60;;;18.98;40.78;98893.34;5031733;28;20164;-80
2022/12/31 09:35:51;;;;;;;23.05;16.25;;;17.20;74.20;;;19.07;41.34;98896.88;5018023;28;20416;-80
2022/12/31 09:38:37;;;;;;;34.42;16.42;;;17.50;76.00;;;18.86;40.38;98896.78;5014901;28;21323;-80
2022/12/31 09:41:58;;;;;;;27.77;16.08;;;17.60;74.00;;;18.80;39.74;98893.41;5051628;28;20041;-80
2022/12/31 09:44:49;;;;;;;21.83;15.38;;;17.70;73.00;;;18.86;39.61;98900.31;5060769;28;20048;-80
2022/12/31 09:47:52;;;;;;;19.10;14.15;;;17.70;72.20;;;18.96;40.04;98901.13;5053661;28;20396;-80
2022/12/31 09:50:24;;;;;;;23.98;13.98;;;17.50;73.00;;;18.98;39.89;98894.16;5028523;28;20090;-80
2022/12/31 09:53:15;;;;;;;26.52;14.07;;;17.40;73.70;;;19.06;39.80;98904.34;5067840;28;20723;-80
2022/12/31 09:56:16;;;;;;;20.92;13.40;;;17.40;74.10;;;19.04;40.22;98900.28;5062293;28;20376;-80
2022/12/31 09:59:03;;;;;;;23.15;14.70;;;17.40;74.50;;;19.07;40.06;98892.19;5064431;28;20086;-80
2022/12/31 10:01:44;;;;;;;22.20;13.40;;;17.40;74.60;;;19.11;40.23;98894.28;5050184;28;20033;-80
2022/12/31 10:04:35;;;;;;;24.08;13.18;;;17.50;74.60;;;19.10;40.35;98885.22;5034321;28;20123;-80
2022/12/31 10:07:34;;;;;;;17.90;12.43;;;17.60;74.70;;;19.09;40.46;98880.88;5050601;28;20049;-80
2022/12/31 10:10:29;;;;;;;18.27;13.18;;;17.60;75.00;;;19.15;40.61;98890.53;5064042;28;20060;-80
2022/12/31 10:13:26;;;;;;;16.15;12.15;;;17.60;75.10;;;19.19;40.51;98898.97;5026241;28;20056;-80
2022/12/31 10:16:14;;;;;;;22.02;12.13;;;17.60;75.90;;;19.13;40.70;98901.06;5040614;28;20044;-80
2022/12/31 10:19:03;;;;;;;19.65;12.13;;;17.70;75.20;;;19.18;40.64;98892.63;5046514;28;20045;-80
2022/12/31 10:22:23;;;;;;;15.82;12.40;;;17.70;75.40;;;19.21;40.87;98885.66;5022718;28;20326;-80
2022/12/31 10:25:27;;;;;;;17.77;11.88;;;17.70;75.40;;;19.24;40.82;98871.28;5065435;28;20048;-80
2022/12/31 10:28:17;;;;;;;18.58;12.73;;;17.70;75.60;;;19.25;41.09;98870.94;5050891;28;20041;-80
2022/12/31 10:30:57;;;;;;;18.02;11.38;;;17.80;76.20;;;19.26;40.96;98871.78;5030660;28;20124;-80
2022/12/31 10:33:40;;;;;;;14.70;10.77;;;17.80;75.70;;;19.27;40.98;98863.16;5046039;28;20380;-80
2022/12/31 10:36:37;;;;;;;14.27;11.35;;;17.80;75.70;;;19.33;41.05;98874.00;5050085;28;20029;-80
2022/12/31 10:39:53;;;;;;;15.35;11.25;;;17.90;75.70;;;19.36;41.78;98871.41;5010470;28;20131;-80
2022/12/31 10:43:06;;;;;;;18.25;11.98;;;18.00;76.40;;;19.42;42.88;98877.53;4992152;28;20157;-80
2022/12/31 10:46:25;;;;;;;14.95;10.48;;;18.10;75.80;;;19.45;41.74;98885.09;4991682;28;20057;-80
2022/12/31 10:49:16;;;;;;;16.23;9.95;;;18.20;76.70;;;19.43;42.35;98881.88;5022645;28;20145;-80
2022/12/31 10:52:15;;;;;;;13.57;10.15;;;18.20;76.70;;;19.43;42.06;98888.19;5043870;28;20055;-81
2022/12/31 10:55:27;;;;;;;17.15;9.45;;;18.10;76.70;;;19.45;42.04;98887.84;5063525;28;20788;-80
2022/12/31 10:58:11;;;;;;;10.98;8.60;;;18.10;76.70;;;19.41;41.23;98878.63;5022535;28;20124;-80
2022/12/31 11:01:08;;;;;;;9.50;7.35;;;18.10;75.90;;;19.36;41.14;98887.06;5063536;28;20062;-80